Forside
METAR-TAF:

METAR-TAF

Lufthavne :

Smith Field

Siloam Springs, Arkansas, USA

Breddekreds: 36-12N, længdekreds: 094-29W, højde: 300 m

Aktuelle vejr

Denne rapport blev lavet for 49 minutter siden, kl. 23:56 UTC
Vind 4 kt fra nordnordøst
Temperatur -1°C
Fugtighed 54%
Tryk 1027 hPa
Sigt: 16.1 km
Brudte skyer i en højde af 9000 ft

METAR: KSLG 142356Z AUTO 03004KT 10SM BKN090 M01/M09 A3034 RMK AO2 SLP286 6//// T10111094 10011 21011 57012 FZRANO

Tid: 18:45 (00:45 UTC)


TAF: fraværende

Vejrobservationer og prognoser fra mere end 4000 lufthavne (METAR og TAF).

De gule og røde prikker repræsenterer de meteorologiske stationer.

Flyt musen over at se navnet på stationen.

Så klik over at se vejr observationer og prognoser.

At skifte det kort: Klik på de grønne knapper med et sort kors for at zoome ind; på den grønne knap med en bindestreg for at zoome ud; eller på de grønne pile for tilstødende kort.


METAR-TAF: